sensor_id;sensor_type;location;lat;lon;timestamp;P1;durP1;ratioP1;P2;durP2;ratioP2
359;SDS011;168;48.872;9.226;2022-07-12T00:00:34;3.60;;;3.33;;
359;SDS011;168;48.872;9.226;2022-07-12T00:03:01;4.03;;;3.70;;
359;SDS011;168;48.872;9.226;2022-07-12T00:05:29;3.37;;;3.13;;
359;SDS011;168;48.872;9.226;2022-07-12T00:07:58;3.40;;;3.20;;
359;SDS011;168;48.872;9.226;2022-07-12T00:10:26;3.30;;;3.10;;
359;SDS011;168;48.872;9.226;2022-07-12T00:12:53;3.10;;;2.90;;
359;SDS011;168;48.872;9.226;2022-07-12T00:15:21;3.30;;;3.10;;
359;SDS011;168;48.872;9.226;2022-07-12T00:17:49;3.07;;;2.87;;
359;SDS011;168;48.872;9.226;2022-07-12T00:20:16;3.17;;;2.97;;
359;SDS011;168;48.872;9.226;2022-07-12T00:22:44;3.37;;;3.07;;
359;SDS011;168;48.872;9.226;2022-07-12T00:25:16;3.07;;;2.67;;
359;SDS011;168;48.872;9.226;2022-07-12T00:27:43;3.00;;;2.80;;
359;SDS011;168;48.872;9.226;2022-07-12T00:30:11;3.17;;;2.87;;
359;SDS011;168;48.872;9.226;2022-07-12T00:32:39;3.40;;;3.20;;
359;SDS011;168;48.872;9.226;2022-07-12T00:35:06;3.00;;;2.80;;
359;SDS011;168;48.872;9.226;2022-07-12T00:37:34;3.13;;;2.90;;
359;SDS011;168;48.872;9.226;2022-07-12T00:40:03;3.00;;;2.80;;
359;SDS011;168;48.872;9.226;2022-07-12T00:42:34;2.57;;;2.37;;
359;SDS011;168;48.872;9.226;2022-07-12T00:45:02;2.83;;;2.63;;
359;SDS011;168;48.872;9.226;2022-07-12T00:47:32;2.60;;;2.40;;
359;SDS011;168;48.872;9.226;2022-07-12T00:50:03;3.30;;;2.37;;
359;SDS011;168;48.872;9.226;2022-07-12T00:52:32;3.50;;;3.30;;
359;SDS011;168;48.872;9.226;2022-07-12T00:54:59;2.80;;;2.50;;
359;SDS011;168;48.872;9.226;2022-07-12T00:57:30;2.67;;;2.57;;
359;SDS011;168;48.872;9.226;2022-07-12T00:59:59;2.87;;;2.67;;
359;SDS011;168;48.872;9.226;2022-07-12T01:02:27;3.83;;;2.93;;
359;SDS011;168;48.872;9.226;2022-07-12T01:04:57;3.37;;;3.00;;
359;SDS011;168;48.872;9.226;2022-07-12T01:07:28;3.30;;;3.00;;
359;SDS011;168;48.872;9.226;2022-07-12T01:09:56;3.37;;;3.13;;
359;SDS011;168;48.872;9.226;2022-07-12T01:12:23;3.00;;;2.80;;
359;SDS011;168;48.872;9.226;2022-07-12T01:14:53;4.43;;;2.93;;
359;SDS011;168;48.872;9.226;2022-07-12T01:17:21;6.17;;;2.97;;
359;SDS011;168;48.872;9.226;2022-07-12T01:19:52;2.90;;;2.70;;
359;SDS011;168;48.872;9.226;2022-07-12T01:22:25;3.23;;;2.90;;
359;SDS011;168;48.872;9.226;2022-07-12T01:24:55;3.10;;;2.90;;
359;SDS011;168;48.872;9.226;2022-07-12T01:27:23;3.90;;;3.37;;
359;SDS011;168;48.872;9.226;2022-07-12T01:29:50;3.00;;;2.80;;
359;SDS011;168;48.872;9.226;2022-07-12T01:32:18;3.17;;;2.90;;
359;SDS011;168;48.872;9.226;2022-07-12T01:34:52;3.20;;;3.00;;
359;SDS011;168;48.872;9.226;2022-07-12T01:37:21;3.40;;;3.10;;
359;SDS011;168;48.872;9.226;2022-07-12T01:39:50;3.10;;;2.90;;
359;SDS011;168;48.872;9.226;2022-07-12T01:42:20;3.00;;;2.80;;
359;SDS011;168;48.872;9.226;2022-07-12T01:44:48;3.00;;;2.80;;
359;SDS011;168;48.872;9.226;2022-07-12T01:47:17;3.17;;;2.93;;
359;SDS011;168;48.872;9.226;2022-07-12T01:49:45;2.90;;;2.70;;
359;SDS011;168;48.872;9.226;2022-07-12T01:52:13;3.57;;;3.27;;
359;SDS011;168;48.872;9.226;2022-07-12T01:54:41;2.80;;;2.60;;
359;SDS011;168;48.872;9.226;2022-07-12T01:57:09;4.67;;;3.13;;
359;SDS011;168;48.872;9.226;2022-07-12T01:59:38;3.50;;;3.20;;
359;SDS011;168;48.872;9.226;2022-07-12T02:02:07;3.13;;;2.93;;
359;SDS011;168;48.872;9.226;2022-07-12T02:04:34;3.43;;;3.13;;
359;SDS011;168;48.872;9.226;2022-07-12T02:07:05;3.30;;;3.10;;
359;SDS011;168;48.872;9.226;2022-07-12T02:09:33;3.50;;;3.30;;
359;SDS011;168;48.872;9.226;2022-07-12T02:12:01;4.03;;;2.90;;
359;SDS011;168;48.872;9.226;2022-07-12T02:14:28;2.93;;;2.73;;
359;SDS011;168;48.872;9.226;2022-07-12T02:17:06;3.97;;;3.20;;
359;SDS011;168;48.872;9.226;2022-07-12T02:19:34;3.83;;;2.83;;
359;SDS011;168;48.872;9.226;2022-07-12T02:22:01;3.13;;;2.93;;
359;SDS011;168;48.872;9.226;2022-07-12T02:24:29;3.27;;;2.97;;
359;SDS011;168;48.872;9.226;2022-07-12T02:26:56;3.47;;;3.13;;
359;SDS011;168;48.872;9.226;2022-07-12T02:29:24;5.73;;;3.17;;
359;SDS011;168;48.872;9.226;2022-07-12T02:31:52;4.57;;;3.27;;
359;SDS011;168;48.872;9.226;2022-07-12T02:34:21;3.60;;;3.40;;
359;SDS011;168;48.872;9.226;2022-07-12T02:36:48;3.40;;;3.20;;
359;SDS011;168;48.872;9.226;2022-07-12T02:39:16;4.20;;;3.90;;
359;SDS011;168;48.872;9.226;2022-07-12T02:41:45;3.30;;;3.10;;
359;SDS011;168;48.872;9.226;2022-07-12T02:44:13;3.63;;;2.87;;
359;SDS011;168;48.872;9.226;2022-07-12T02:46:40;3.90;;;3.60;;
359;SDS011;168;48.872;9.226;2022-07-12T02:49:07;3.43;;;3.13;;
359;SDS011;168;48.872;9.226;2022-07-12T02:51:36;3.60;;;3.30;;
359;SDS011;168;48.872;9.226;2022-07-12T02:54:04;3.13;;;2.80;;
359;SDS011;168;48.872;9.226;2022-07-12T02:56:31;3.37;;;3.13;;
359;SDS011;168;48.872;9.226;2022-07-12T02:58:58;3.37;;;3.17;;
359;SDS011;168;48.872;9.226;2022-07-12T03:01:26;3.43;;;3.23;;
359;SDS011;168;48.872;9.226;2022-07-12T03:03:53;4.10;;;3.80;;
359;SDS011;168;48.872;9.226;2022-07-12T03:06:21;3.63;;;3.37;;
359;SDS011;168;48.872;9.226;2022-07-12T03:08:50;3.17;;;2.90;;
359;SDS011;168;48.872;9.226;2022-07-12T03:11:17;3.97;;;3.67;;
359;SDS011;168;48.872;9.226;2022-07-12T03:13:45;3.73;;;3.47;;
359;SDS011;168;48.872;9.226;2022-07-12T03:16:12;3.33;;;3.13;;
359;SDS011;168;48.872;9.226;2022-07-12T03:18:40;3.37;;;3.17;;
359;SDS011;168;48.872;9.226;2022-07-12T03:21:08;3.70;;;3.40;;
359;SDS011;168;48.872;9.226;2022-07-12T03:23:37;3.60;;;3.30;;
359;SDS011;168;48.872;9.226;2022-07-12T03:26:07;3.53;;;3.20;;
359;SDS011;168;48.872;9.226;2022-07-12T03:28:34;3.83;;;3.63;;
359;SDS011;168;48.872;9.226;2022-07-12T03:31:02;3.93;;;3.63;;
359;SDS011;168;48.872;9.226;2022-07-12T03:33:29;3.77;;;3.40;;
359;SDS011;168;48.872;9.226;2022-07-12T03:35:58;3.40;;;3.10;;
359;SDS011;168;48.872;9.226;2022-07-12T03:38:26;3.30;;;3.10;;
359;SDS011;168;48.872;9.226;2022-07-12T03:40:54;3.40;;;3.17;;
359;SDS011;168;48.872;9.226;2022-07-12T03:43:23;3.90;;;3.60;;
359;SDS011;168;48.872;9.226;2022-07-12T03:45:50;3.57;;;3.37;;
359;SDS011;168;48.872;9.226;2022-07-12T03:48:18;3.60;;;3.30;;
359;SDS011;168;48.872;9.226;2022-07-12T03:50:46;4.07;;;3.73;;
359;SDS011;168;48.872;9.226;2022-07-12T03:53:15;3.20;;;2.90;;
359;SDS011;168;48.872;9.226;2022-07-12T03:55:42;3.47;;;3.27;;
359;SDS011;168;48.872;9.226;2022-07-12T03:58:10;5.80;;;3.40;;
359;SDS011;168;48.872;9.226;2022-07-12T04:00:39;3.33;;;3.10;;
359;SDS011;168;48.872;9.226;2022-07-12T04:03:08;3.40;;;3.20;;
359;SDS011;168;48.872;9.226;2022-07-12T04:05:36;3.50;;;3.20;;
359;SDS011;168;48.872;9.226;2022-07-12T04:08:04;3.30;;;3.00;;
359;SDS011;168;48.872;9.226;2022-07-12T04:10:32;3.90;;;3.53;;
359;SDS011;168;48.872;9.226;2022-07-12T04:13:00;3.50;;;3.30;;
359;SDS011;168;48.872;9.226;2022-07-12T04:15:27;2.80;;;2.60;;
359;SDS011;168;48.872;9.226;2022-07-12T04:17:57;3.47;;;3.17;;
359;SDS011;168;48.872;9.226;2022-07-12T04:20:24;3.30;;;3.10;;
359;SDS011;168;48.872;9.226;2022-07-12T04:22:52;3.03;;;2.83;;
359;SDS011;168;48.872;9.226;2022-07-12T04:25:21;3.30;;;3.10;;
359;SDS011;168;48.872;9.226;2022-07-12T04:27:50;3.50;;;3.30;;
359;SDS011;168;48.872;9.226;2022-07-12T04:30:21;3.73;;;3.43;;
359;SDS011;168;48.872;9.226;2022-07-12T04:32:49;4.17;;;3.87;;
359;SDS011;168;48.872;9.226;2022-07-12T04:35:17;4.27;;;3.97;;
359;SDS011;168;48.872;9.226;2022-07-12T04:37:45;4.50;;;4.20;;
359;SDS011;168;48.872;9.226;2022-07-12T04:40:12;6.00;;;4.90;;
359;SDS011;168;48.872;9.226;2022-07-12T04:42:40;4.00;;;3.77;;
359;SDS011;168;48.872;9.226;2022-07-12T04:45:08;4.17;;;3.70;;
359;SDS011;168;48.872;9.226;2022-07-12T04:47:36;4.10;;;3.77;;
359;SDS011;168;48.872;9.226;2022-07-12T04:50:04;4.00;;;3.70;;
359;SDS011;168;48.872;9.226;2022-07-12T04:52:34;5.00;;;4.53;;
359;SDS011;168;48.872;9.226;2022-07-12T04:55:03;6.00;;;4.50;;
359;SDS011;168;48.872;9.226;2022-07-12T04:57:31;4.23;;;3.93;;
359;SDS011;168;48.872;9.226;2022-07-12T04:59:58;5.20;;;4.87;;
359;SDS011;168;48.872;9.226;2022-07-12T05:02:26;4.47;;;4.17;;
359;SDS011;168;48.872;9.226;2022-07-12T05:04:53;5.33;;;4.97;;
359;SDS011;168;48.872;9.226;2022-07-12T05:07:23;4.20;;;3.90;;
359;SDS011;168;48.872;9.226;2022-07-12T05:09:53;5.87;;;5.27;;
359;SDS011;168;48.872;9.226;2022-07-12T05:12:21;5.17;;;4.73;;
359;SDS011;168;48.872;9.226;2022-07-12T05:14:48;4.67;;;4.27;;
359;SDS011;168;48.872;9.226;2022-07-12T05:17:16;6.23;;;5.73;;
359;SDS011;168;48.872;9.226;2022-07-12T05:19:44;5.03;;;4.63;;
359;SDS011;168;48.872;9.226;2022-07-12T05:22:13;5.23;;;4.80;;
359;SDS011;168;48.872;9.226;2022-07-12T05:24:40;5.30;;;4.33;;
359;SDS011;168;48.872;9.226;2022-07-12T05:27:09;5.50;;;5.00;;
359;SDS011;168;48.872;9.226;2022-07-12T05:29:36;4.83;;;4.40;;
359;SDS011;168;48.872;9.226;2022-07-12T05:32:04;7.85;;;5.80;;
359;SDS011;168;48.872;9.226;2022-07-12T05:34:32;7.20;;;6.40;;
359;SDS011;168;48.872;9.226;2022-07-12T05:36:59;7.40;;;6.80;;
359;SDS011;168;48.872;9.226;2022-07-12T05:39:26;6.63;;;6.13;;
359;SDS011;168;48.872;9.226;2022-07-12T05:41:54;6.07;;;5.57;;
359;SDS011;168;48.872;9.226;2022-07-12T05:44:23;5.53;;;5.13;;
359;SDS011;168;48.872;9.226;2022-07-12T05:46:50;6.30;;;5.72;;
359;SDS011;168;48.872;9.226;2022-07-12T05:49:18;6.07;;;5.67;;
359;SDS011;168;48.872;9.226;2022-07-12T05:51:46;5.53;;;5.13;;
359;SDS011;168;48.872;9.226;2022-07-12T05:54:31;5.90;;;5.40;;
359;SDS011;168;48.872;9.226;2022-07-12T05:56:59;5.50;;;5.10;;
359;SDS011;168;48.872;9.226;2022-07-12T05:59:28;5.60;;;5.20;;
359;SDS011;168;48.872;9.226;2022-07-12T06:01:57;5.60;;;5.20;;
359;SDS011;168;48.872;9.226;2022-07-12T06:04:24;5.90;;;5.50;;
359;SDS011;168;48.872;9.226;2022-07-12T06:06:52;4.90;;;4.50;;
359;SDS011;168;48.872;9.226;2022-07-12T06:09:20;5.47;;;4.97;;
359;SDS011;168;48.872;9.226;2022-07-12T06:11:48;6.00;;;5.50;;
359;SDS011;168;48.872;9.226;2022-07-12T06:14:16;5.23;;;4.83;;
359;SDS011;168;48.872;9.226;2022-07-12T06:16:44;5.43;;;4.93;;
359;SDS011;168;48.872;9.226;2022-07-12T06:19:12;4.73;;;4.20;;
359;SDS011;168;48.872;9.226;2022-07-12T06:21:40;4.90;;;4.50;;
359;SDS011;168;48.872;9.226;2022-07-12T06:24:07;4.90;;;3.60;;
359;SDS011;168;48.872;9.226;2022-07-12T06:26:34;2.23;;;2.13;;
359;SDS011;168;48.872;9.226;2022-07-12T06:29:02;2.60;;;2.40;;
359;SDS011;168;48.872;9.226;2022-07-12T06:31:29;2.70;;;2.50;;
359;SDS011;168;48.872;9.226;2022-07-12T06:33:58;3.13;;;2.87;;
359;SDS011;168;48.872;9.226;2022-07-12T06:36:26;3.20;;;2.37;;
359;SDS011;168;48.872;9.226;2022-07-12T06:39:05;2.70;;;2.07;;
359;SDS011;168;48.872;9.226;2022-07-12T06:41:33;2.43;;;2.33;;
359;SDS011;168;48.872;9.226;2022-07-12T06:44:01;2.00;;;1.90;;
359;SDS011;168;48.872;9.226;2022-07-12T06:46:28;1.87;;;1.70;;
359;SDS011;168;48.872;9.226;2022-07-12T06:48:56;2.33;;;2.13;;
359;SDS011;168;48.872;9.226;2022-07-12T06:51:25;1.57;;;1.47;;
359;SDS011;168;48.872;9.226;2022-07-12T06:53:52;1.97;;;1.87;;
359;SDS011;168;48.872;9.226;2022-07-12T06:56:20;1.30;;;1.20;;
359;SDS011;168;48.872;9.226;2022-07-12T06:58:48;1.67;;;1.17;;
359;SDS011;168;48.872;9.226;2022-07-12T07:01:15;1.50;;;1.40;;
359;SDS011;168;48.872;9.226;2022-07-12T07:03:42;1.90;;;1.80;;
359;SDS011;168;48.872;9.226;2022-07-12T07:06:10;1.80;;;1.40;;
359;SDS011;168;48.872;9.226;2022-07-12T07:08:39;2.60;;;1.30;;
359;SDS011;168;48.872;9.226;2022-07-12T07:11:06;1.33;;;1.23;;
359;SDS011;168;48.872;9.226;2022-07-12T07:13:36;2.03;;;1.33;;
359;SDS011;168;48.872;9.226;2022-07-12T07:16:05;1.73;;;1.37;;
359;SDS011;168;48.872;9.226;2022-07-12T07:18:33;2.07;;;1.50;;
359;SDS011;168;48.872;9.226;2022-07-12T07:21:00;1.40;;;1.30;;
359;SDS011;168;48.872;9.226;2022-07-12T07:23:27;1.40;;;1.30;;
359;SDS011;168;48.872;9.226;2022-07-12T07:25:56;1.00;;;1.00;;
359;SDS011;168;48.872;9.226;2022-07-12T07:28:24;1.13;;;1.03;;
359;SDS011;168;48.872;9.226;2022-07-12T07:30:51;1.57;;;1.23;;
359;SDS011;168;48.872;9.226;2022-07-12T07:33:18;1.23;;;1.13;;
359;SDS011;168;48.872;9.226;2022-07-12T07:35:46;1.40;;;1.00;;
359;SDS011;168;48.872;9.226;2022-07-12T07:38:14;2.20;;;1.13;;
359;SDS011;168;48.872;9.226;2022-07-12T07:40:42;1.17;;;1.07;;
359;SDS011;168;48.872;9.226;2022-07-12T07:43:11;0.90;;;0.80;;
359;SDS011;168;48.872;9.226;2022-07-12T07:45:39;0.87;;;0.87;;
359;SDS011;168;48.872;9.226;2022-07-12T07:48:07;0.90;;;0.73;;
359;SDS011;168;48.872;9.226;2022-07-12T07:50:34;0.90;;;0.90;;
359;SDS011;168;48.872;9.226;2022-07-12T07:53:02;0.97;;;0.90;;
359;SDS011;168;48.872;9.226;2022-07-12T07:55:30;1.07;;;1.00;;
359;SDS011;168;48.872;9.226;2022-07-12T07:57:57;0.83;;;0.83;;
359;SDS011;168;48.872;9.226;2022-07-12T08:00:26;0.70;;;0.70;;
359;SDS011;168;48.872;9.226;2022-07-12T08:02:54;0.87;;;0.80;;
359;SDS011;168;48.872;9.226;2022-07-12T08:05:22;0.70;;;0.70;;
359;SDS011;168;48.872;9.226;2022-07-12T08:07:50;0.70;;;0.70;;
359;SDS011;168;48.872;9.226;2022-07-12T08:10:17;0.67;;;0.67;;
359;SDS011;168;48.872;9.226;2022-07-12T08:12:45;0.90;;;0.90;;
359;SDS011;168;48.872;9.226;2022-07-12T08:15:12;0.80;;;0.80;;
359;SDS011;168;48.872;9.226;2022-07-12T08:17:42;0.93;;;0.90;;
359;SDS011;168;48.872;9.226;2022-07-12T08:20:10;0.60;;;0.60;;
359;SDS011;168;48.872;9.226;2022-07-12T08:22:42;0.80;;;0.70;;
359;SDS011;168;48.872;9.226;2022-07-12T08:25:11;0.80;;;0.80;;
359;SDS011;168;48.872;9.226;2022-07-12T08:27:40;1.37;;;1.27;;
359;SDS011;168;48.872;9.226;2022-07-12T08:30:08;1.43;;;1.07;;
359;SDS011;168;48.872;9.226;2022-07-12T08:32:36;2.10;;;0.83;;
359;SDS011;168;48.872;9.226;2022-07-12T08:35:06;0.80;;;0.77;;
359;SDS011;168;48.872;9.226;2022-07-12T08:37:33;0.90;;;0.90;;
359;SDS011;168;48.872;9.226;2022-07-12T08:40:01;1.30;;;1.20;;
359;SDS011;168;48.872;9.226;2022-07-12T08:42:29;0.87;;;0.87;;
359;SDS011;168;48.872;9.226;2022-07-12T08:44:56;1.13;;;1.00;;
359;SDS011;168;48.872;9.226;2022-07-12T08:47:25;1.03;;;0.93;;
359;SDS011;168;48.872;9.226;2022-07-12T08:50:13;1.00;;;0.90;;
359;SDS011;168;48.872;9.226;2022-07-12T08:52:43;0.70;;;0.70;;
359;SDS011;168;48.872;9.226;2022-07-12T08:55:18;1.10;;;1.00;;
359;SDS011;168;48.872;9.226;2022-07-12T08:57:48;0.93;;;0.93;;
359;SDS011;168;48.872;9.226;2022-07-12T09:00:16;1.23;;;1.00;;
359;SDS011;168;48.872;9.226;2022-07-12T09:02:45;0.93;;;0.77;;
359;SDS011;168;48.872;9.226;2022-07-12T09:05:15;1.43;;;1.00;;
359;SDS011;168;48.872;9.226;2022-07-12T09:07:44;1.50;;;0.77;;
359;SDS011;168;48.872;9.226;2022-07-12T09:10:12;0.90;;;0.90;;
359;SDS011;168;48.872;9.226;2022-07-12T09:12:41;3.83;;;1.00;;
359;SDS011;168;48.872;9.226;2022-07-12T09:15:16;1.10;;;0.87;;
359;SDS011;168;48.872;9.226;2022-07-12T09:17:55;2.60;;;1.07;;
359;SDS011;168;48.872;9.226;2022-07-12T09:20:27;1.53;;;0.80;;
359;SDS011;168;48.872;9.226;2022-07-12T09:22:57;0.80;;;0.80;;
359;SDS011;168;48.872;9.226;2022-07-12T09:25:25;1.23;;;0.90;;
359;SDS011;168;48.872;9.226;2022-07-12T09:27:54;0.70;;;0.70;;
359;SDS011;168;48.872;9.226;2022-07-12T09:30:23;2.40;;;0.87;;
359;SDS011;168;48.872;9.226;2022-07-12T09:32:56;1.00;;;0.90;;
359;SDS011;168;48.872;9.226;2022-07-12T09:35:46;1.00;;;0.73;;
359;SDS011;168;48.872;9.226;2022-07-12T09:38:36;0.70;;;0.70;;
359;SDS011;168;48.872;9.226;2022-07-12T09:41:04;0.70;;;0.70;;
359;SDS011;168;48.872;9.226;2022-07-12T09:43:33;0.60;;;0.60;;
359;SDS011;168;48.872;9.226;2022-07-12T09:46:01;1.27;;;0.70;;
359;SDS011;168;48.872;9.226;2022-07-12T09:48:29;1.70;;;0.93;;
359;SDS011;168;48.872;9.226;2022-07-12T09:51:00;1.17;;;1.07;;
359;SDS011;168;48.872;9.226;2022-07-12T09:53:30;1.03;;;0.70;;
359;SDS011;168;48.872;9.226;2022-07-12T09:56:05;1.30;;;0.70;;
359;SDS011;168;48.872;9.226;2022-07-12T09:58:34;0.87;;;0.80;;
359;SDS011;168;48.872;9.226;2022-07-12T10:01:06;0.80;;;0.80;;
359;SDS011;168;48.872;9.226;2022-07-12T10:03:34;0.70;;;0.70;;
359;SDS011;168;48.872;9.226;2022-07-12T10:06:04;0.60;;;0.60;;
359;SDS011;168;48.872;9.226;2022-07-12T10:08:35;0.80;;;0.80;;
359;SDS011;168;48.872;9.226;2022-07-12T10:11:02;0.70;;;0.70;;
359;SDS011;168;48.872;9.226;2022-07-12T10:13:31;1.33;;;0.80;;
359;SDS011;168;48.872;9.226;2022-07-12T10:16:00;1.07;;;0.80;;
359;SDS011;168;48.872;9.226;2022-07-12T10:18:29;0.80;;;0.80;;
359;SDS011;168;48.872;9.226;2022-07-12T10:21:18;0.73;;;0.73;;
359;SDS011;168;48.872;9.226;2022-07-12T10:23:47;0.80;;;0.70;;
359;SDS011;168;48.872;9.226;2022-07-12T10:29:55;0.80;;;0.60;;
359;SDS011;168;48.872;9.226;2022-07-12T10:32:41;0.70;;;0.70;;
359;SDS011;168;48.872;9.226;2022-07-12T10:35:13;0.85;;;0.80;;
359;SDS011;168;48.872;9.226;2022-07-12T10:40:52;1.00;;;0.90;;
359;SDS011;168;48.872;9.226;2022-07-12T10:43:21;0.70;;;0.70;;
359;SDS011;168;48.872;9.226;2022-07-12T10:46:04;0.90;;;0.80;;
359;SDS011;168;48.872;9.226;2022-07-12T10:54:41;1.20;;;1.10;;
359;SDS011;168;48.872;9.226;2022-07-12T10:57:17;1.83;;;0.70;;
359;SDS011;168;48.872;9.226;2022-07-12T11:00:05;0.57;;;0.57;;
359;SDS011;168;48.872;9.226;2022-07-12T11:02:34;0.90;;;0.90;;
359;SDS011;168;48.872;9.226;2022-07-12T11:05:03;0.60;;;0.60;;
359;SDS011;168;48.872;9.226;2022-07-12T11:07:31;1.30;;;0.70;;
359;SDS011;168;48.872;9.226;2022-07-12T11:09:59;0.70;;;0.70;;
359;SDS011;168;48.872;9.226;2022-07-12T11:12:30;1.03;;;0.70;;
359;SDS011;168;48.872;9.226;2022-07-12T11:14:58;0.70;;;0.70;;
359;SDS011;168;48.872;9.226;2022-07-12T11:17:27;0.60;;;0.60;;
359;SDS011;168;48.872;9.226;2022-07-12T11:20:03;0.90;;;0.90;;
359;SDS011;168;48.872;9.226;2022-07-12T11:22:32;0.70;;;0.70;;
359;SDS011;168;48.872;9.226;2022-07-12T11:24:59;0.60;;;0.60;;
359;SDS011;168;48.872;9.226;2022-07-12T11:27:28;1.20;;;0.83;;
359;SDS011;168;48.872;9.226;2022-07-12T11:29:58;1.00;;;0.70;;
359;SDS011;168;48.872;9.226;2022-07-12T11:32:38;2.63;;;0.70;;
359;SDS011;168;48.872;9.226;2022-07-12T11:35:19;0.97;;;0.77;;
359;SDS011;168;48.872;9.226;2022-07-12T11:37:47;0.70;;;0.67;;
359;SDS011;168;48.872;9.226;2022-07-12T11:40:20;0.63;;;0.60;;
359;SDS011;168;48.872;9.226;2022-07-12T11:42:52;1.57;;;0.80;;
359;SDS011;168;48.872;9.226;2022-07-12T11:45:26;0.67;;;0.67;;
359;SDS011;168;48.872;9.226;2022-07-12T11:47:54;0.50;;;0.50;;
359;SDS011;168;48.872;9.226;2022-07-12T11:50:26;1.20;;;0.63;;
359;SDS011;168;48.872;9.226;2022-07-12T11:52:55;0.60;;;0.60;;
359;SDS011;168;48.872;9.226;2022-07-12T11:55:22;0.67;;;0.67;;
359;SDS011;168;48.872;9.226;2022-07-12T11:57:50;0.90;;;0.53;;
359;SDS011;168;48.872;9.226;2022-07-12T12:00:18;0.93;;;0.70;;
359;SDS011;168;48.872;9.226;2022-07-12T12:02:52;0.60;;;0.60;;
359;SDS011;168;48.872;9.226;2022-07-12T12:05:20;1.10;;;0.77;;
359;SDS011;168;48.872;9.226;2022-07-12T12:07:48;1.43;;;0.80;;
359;SDS011;168;48.872;9.226;2022-07-12T12:10:16;0.77;;;0.53;;
359;SDS011;168;48.872;9.226;2022-07-12T12:12:44;0.77;;;0.70;;
359;SDS011;168;48.872;9.226;2022-07-12T12:15:14;1.23;;;0.70;;
359;SDS011;168;48.872;9.226;2022-07-12T12:17:43;0.60;;;0.60;;
359;SDS011;168;48.872;9.226;2022-07-12T12:20:15;0.60;;;0.60;;
359;SDS011;168;48.872;9.226;2022-07-12T12:22:44;0.60;;;0.60;;
359;SDS011;168;48.872;9.226;2022-07-12T12:25:13;1.03;;;0.70;;
359;SDS011;168;48.872;9.226;2022-07-12T12:27:42;0.60;;;0.60;;
359;SDS011;168;48.872;9.226;2022-07-12T12:30:11;1.10;;;0.77;;
359;SDS011;168;48.872;9.226;2022-07-12T12:32:43;1.13;;;0.73;;
359;SDS011;168;48.872;9.226;2022-07-12T12:35:13;0.60;;;0.60;;
359;SDS011;168;48.872;9.226;2022-07-12T12:37:52;0.57;;;0.57;;
359;SDS011;168;48.872;9.226;2022-07-12T12:40:22;1.03;;;0.70;;
359;SDS011;168;48.872;9.226;2022-07-12T12:42:51;0.73;;;0.70;;
359;SDS011;168;48.872;9.226;2022-07-12T12:45:20;2.90;;;0.70;;
359;SDS011;168;48.872;9.226;2022-07-12T12:47:52;0.70;;;0.70;;
359;SDS011;168;48.872;9.226;2022-07-12T12:50:38;0.57;;;0.57;;
359;SDS011;168;48.872;9.226;2022-07-12T12:53:06;0.80;;;0.63;;
359;SDS011;168;48.872;9.226;2022-07-12T12:55:38;0.70;;;0.70;;
359;SDS011;168;48.872;9.226;2022-07-12T12:58:06;0.57;;;0.57;;
359;SDS011;168;48.872;9.226;2022-07-12T13:00:35;1.17;;;1.10;;
359;SDS011;168;48.872;9.226;2022-07-12T13:03:05;1.13;;;0.70;;
359;SDS011;168;48.872;9.226;2022-07-12T13:05:33;0.63;;;0.63;;
359;SDS011;168;48.872;9.226;2022-07-12T13:08:02;0.70;;;0.70;;
359;SDS011;168;48.872;9.226;2022-07-12T13:10:31;0.77;;;0.77;;
359;SDS011;168;48.872;9.226;2022-07-12T13:12:59;1.40;;;0.77;;
359;SDS011;168;48.872;9.226;2022-07-12T13:15:28;1.10;;;0.70;;
359;SDS011;168;48.872;9.226;2022-07-12T13:17:57;1.13;;;0.70;;
359;SDS011;168;48.872;9.226;2022-07-12T13:20:25;0.80;;;0.80;;
359;SDS011;168;48.872;9.226;2022-07-12T13:22:53;1.83;;;0.80;;
359;SDS011;168;48.872;9.226;2022-07-12T13:25:22;1.90;;;0.80;;
359;SDS011;168;48.872;9.226;2022-07-12T13:27:50;1.07;;;0.60;;
359;SDS011;168;48.872;9.226;2022-07-12T13:30:19;0.50;;;0.50;;
359;SDS011;168;48.872;9.226;2022-07-12T13:32:46;0.80;;;0.70;;
359;SDS011;168;48.872;9.226;2022-07-12T13:35:14;0.80;;;0.80;;
359;SDS011;168;48.872;9.226;2022-07-12T13:37:42;0.73;;;0.73;;
359;SDS011;168;48.872;9.226;2022-07-12T13:40:10;0.80;;;0.80;;
359;SDS011;168;48.872;9.226;2022-07-12T13:42:40;0.60;;;0.60;;
359;SDS011;168;48.872;9.226;2022-07-12T13:45:09;0.80;;;0.80;;
359;SDS011;168;48.872;9.226;2022-07-12T13:47:38;0.67;;;0.67;;
359;SDS011;168;48.872;9.226;2022-07-12T13:50:09;1.13;;;0.70;;
359;SDS011;168;48.872;9.226;2022-07-12T13:52:37;1.97;;;0.80;;
359;SDS011;168;48.872;9.226;2022-07-12T13:55:06;0.77;;;0.77;;
359;SDS011;168;48.872;9.226;2022-07-12T13:57:35;0.90;;;0.80;;
359;SDS011;168;48.872;9.226;2022-07-12T14:00:07;1.43;;;0.90;;
359;SDS011;168;48.872;9.226;2022-07-12T14:02:37;0.80;;;0.80;;
359;SDS011;168;48.872;9.226;2022-07-12T14:05:07;0.67;;;0.67;;
359;SDS011;168;48.872;9.226;2022-07-12T14:07:36;0.73;;;0.73;;
359;SDS011;168;48.872;9.226;2022-07-12T14:10:04;1.30;;;0.70;;
359;SDS011;168;48.872;9.226;2022-07-12T14:12:33;0.73;;;0.70;;
359;SDS011;168;48.872;9.226;2022-07-12T14:15:01;0.70;;;0.70;;
359;SDS011;168;48.872;9.226;2022-07-12T14:17:47;0.50;;;0.50;;
359;SDS011;168;48.872;9.226;2022-07-12T14:20:16;1.20;;;0.70;;
359;SDS011;168;48.872;9.226;2022-07-12T14:22:45;0.60;;;0.60;;
359;SDS011;168;48.872;9.226;2022-07-12T14:25:14;0.80;;;0.70;;
359;SDS011;168;48.872;9.226;2022-07-12T14:27:42;1.00;;;0.60;;
359;SDS011;168;48.872;9.226;2022-07-12T14:30:12;0.80;;;0.80;;
359;SDS011;168;48.872;9.226;2022-07-12T14:32:40;0.67;;;0.67;;
359;SDS011;168;48.872;9.226;2022-07-12T14:35:10;0.97;;;0.90;;
359;SDS011;168;48.872;9.226;2022-07-12T14:37:37;0.77;;;0.50;;
359;SDS011;168;48.872;9.226;2022-07-12T15:00:35;0.87;;;0.87;;
359;SDS011;168;48.872;9.226;2022-07-12T15:03:03;1.13;;;0.90;;
359;SDS011;168;48.872;9.226;2022-07-12T15:05:30;0.70;;;0.70;;
359;SDS011;168;48.872;9.226;2022-07-12T15:07:58;0.70;;;0.70;;
359;SDS011;168;48.872;9.226;2022-07-12T15:10:26;0.80;;;0.60;;
359;SDS011;168;48.872;9.226;2022-07-12T15:12:54;0.70;;;0.70;;
359;SDS011;168;48.872;9.226;2022-07-12T15:15:21;0.80;;;0.80;;
359;SDS011;168;48.872;9.226;2022-07-12T15:17:50;0.80;;;0.80;;
359;SDS011;168;48.872;9.226;2022-07-12T15:20:17;1.03;;;0.80;;
359;SDS011;168;48.872;9.226;2022-07-12T15:22:45;1.33;;;0.70;;
359;SDS011;168;48.872;9.226;2022-07-12T15:25:13;0.70;;;0.70;;
359;SDS011;168;48.872;9.226;2022-07-12T15:27:42;1.27;;;0.70;;
359;SDS011;168;48.872;9.226;2022-07-12T15:32:39;4.20;;;0.80;;
359;SDS011;168;48.872;9.226;2022-07-12T15:35:08;3.20;;;3.00;;
359;SDS011;168;48.872;9.226;2022-07-12T15:37:35;1.93;;;1.50;;
359;SDS011;168;48.872;9.226;2022-07-12T15:40:03;1.27;;;0.93;;
359;SDS011;168;48.872;9.226;2022-07-12T15:42:31;1.50;;;0.60;;
359;SDS011;168;48.872;9.226;2022-07-12T15:44:58;0.70;;;0.70;;
359;SDS011;168;48.872;9.226;2022-07-12T15:47:26;0.80;;;0.80;;
359;SDS011;168;48.872;9.226;2022-07-12T15:49:53;1.43;;;0.60;;
359;SDS011;168;48.872;9.226;2022-07-12T15:52:22;1.10;;;0.60;;
359;SDS011;168;48.872;9.226;2022-07-12T15:55:07;0.80;;;0.80;;
359;SDS011;168;48.872;9.226;2022-07-12T15:57:35;0.60;;;0.60;;
359;SDS011;168;48.872;9.226;2022-07-12T16:00:03;0.70;;;0.70;;
359;SDS011;168;48.872;9.226;2022-07-12T16:02:33;1.63;;;1.00;;
359;SDS011;168;48.872;9.226;2022-07-12T16:05:00;0.60;;;0.60;;
359;SDS011;168;48.872;9.226;2022-07-12T16:07:30;1.13;;;1.00;;
359;SDS011;168;48.872;9.226;2022-07-12T16:10:01;0.67;;;0.60;;
359;SDS011;168;48.872;9.226;2022-07-12T16:12:29;2.40;;;0.97;;
359;SDS011;168;48.872;9.226;2022-07-12T16:14:56;0.67;;;0.67;;
359;SDS011;168;48.872;9.226;2022-07-12T16:17:24;0.97;;;0.87;;
359;SDS011;168;48.872;9.226;2022-07-12T16:19:51;0.90;;;0.80;;
359;SDS011;168;48.872;9.226;2022-07-12T16:22:19;0.50;;;0.50;;
359;SDS011;168;48.872;9.226;2022-07-12T16:24:48;0.67;;;0.67;;
359;SDS011;168;48.872;9.226;2022-07-12T16:27:15;1.03;;;0.70;;
359;SDS011;168;48.872;9.226;2022-07-12T16:29:42;2.40;;;0.80;;
359;SDS011;168;48.872;9.226;2022-07-12T16:32:10;1.07;;;0.83;;